Andover, IA

12:33 PM CST on December 22, 2014 (GMT -0600)
Mayer Farm @ Eagle Point | Change Station
CLOSE
Current Station
Personal Weather Station
Location: Clinton, IA
Elevation: 745 ft
Nearby Weather Stations

Elev 745 ft 41.89 °N, 90.19 °W | Updated 9 minutes ago

Rain
Rain
35.9 °F
Feels Like 29 °F
N
9.0
Wind Variable Wind from East
Gusts 16.0 mph

Today
High -- | Low -- °F
--% Chance of Precip.
Yesterday
High -- | Low -- °F
Precip. -- in
7:26 AM 4:33 PM
New Moon, 1% visible
Pressure 29.69 in
Visibility 4.0 miles
Clouds Mostly Cloudy 2900 ft
Overcast 3600 ft
Windchill 29 °F
Dew Point 35 °F
Humidity 95%
Rainfall 0.02 in
Snow Depth Not available.
UV 1 out of 12
Pollen .10 out of 12
Air Quality Not available.
Flu Activity Not available.
METAR KSFY 221815Z AUTO 09011G16KT 4SM DZ BKN029 OVC036 03/01 A2969 RMK AO2 T00280010

More Conditions Fewer Conditions

Pressure 29.69 in
Visibility 4.0 miles
Clouds Mostly Cloudy 2900 ft
Overcast 3600 ft
Windchill 29 °F
Dew Point 35 °F
Humidity 95%
Rainfall 0.02 in
Snow Depth Not available.
UV 1 out of 12
Pollen .10 out of 12
Air Quality Not available.
Flu Activity Not available.
METAR KSFY 221815Z AUTO 09011G16KT 4SM DZ BKN029 OVC036 03/01 A2969 RMK AO2 T00280010

More Conditions Fewer Conditions

10-Day Weather Forecast

Almanac

Astronomy

Dec. 22, 2014 Rise Set
Actual Time
Civil Twilight
Nautical Twilight
Astronomical Twilight
Moon
Length of Visible Light
Length of Day
Tomorrow will be .
, % of the Moon is Illuminated

Today's Extremes

State Highs State Lows

Community

WunderPhotos

Upload Photos

1,779,671 photos uploaded!

WunderBlogs® & News

Nearby

Air Quality

  Air Quality AQ Index Pollutant
Not available.

Snow Depth

Station Depth Elevation

Earthquake Activity

City Distance Mag. Time & Date
Minimum magnitude displayed is 2.5.

Coastal Water Temperatures

Place Temperature

Nearby Weather Stations